createdAt,value
2023-02-08T00:01:22.685Z,10.57
2023-02-08T00:03:50.564Z,10.32
2023-02-08T00:06:18.612Z,10.05
2023-02-08T00:08:46.497Z,10.25
2023-02-08T00:11:13.857Z,10.70
2023-02-08T00:13:42.405Z,10.35
2023-02-08T00:16:10.375Z,10.65
2023-02-08T00:18:37.742Z,11.73
2023-02-08T00:21:10.072Z,11.02
2023-02-08T00:23:37.559Z,11.45
2023-02-08T00:26:05.337Z,11.13
2023-02-08T00:28:32.632Z,11.65
2023-02-08T00:30:59.997Z,10.65
2023-02-08T00:33:27.338Z,11.00
2023-02-08T00:36:02.349Z,10.18
2023-02-08T00:38:30.073Z,11.02
2023-02-08T00:40:57.369Z,10.85
2023-02-08T00:43:24.830Z,11.52
2023-02-08T00:45:56.552Z,10.75
2023-02-08T00:48:26.261Z,10.55
2023-02-08T00:51:09.994Z,11.00
2023-02-08T00:53:39.227Z,10.82
2023-02-08T00:56:08.121Z,11.38
2023-02-08T00:58:35.929Z,11.52
2023-02-08T01:01:05.261Z,11.77
2023-02-08T01:03:38.385Z,11.48
2023-02-08T01:06:08.396Z,11.38
2023-02-08T01:08:36.165Z,12.13
2023-02-08T01:11:09.615Z,11.73
2023-02-08T01:13:38.476Z,11.35
2023-02-08T01:16:14.347Z,11.70
2023-02-08T01:18:43.455Z,11.60
2023-02-08T01:21:13.456Z,12.27
2023-02-08T01:23:41.566Z,12.57
2023-02-08T01:26:10.501Z,11.80
2023-02-08T01:28:39.950Z,13.27
2023-02-08T01:31:12.832Z,12.13
2023-02-08T01:33:40.223Z,13.20
2023-02-08T01:36:08.435Z,13.18
2023-02-08T01:38:37.612Z,11.75
2023-02-08T01:41:07.023Z,11.45
2023-02-08T01:43:55.680Z,12.30
2023-02-08T01:46:23.540Z,11.43
2023-02-08T01:48:51.799Z,13.20
2023-02-08T01:51:23.739Z,12.48
2023-02-08T01:53:52.603Z,13.65
2023-02-08T01:56:31.871Z,13.63
2023-02-08T01:59:04.980Z,13.43
2023-02-08T02:01:33.008Z,13.27
2023-02-08T02:04:05.964Z,13.30
2023-02-08T02:06:40.782Z,14.00
2023-02-08T02:09:14.358Z,13.45
2023-02-08T02:11:42.520Z,12.73
2023-02-08T02:14:10.625Z,13.38
2023-02-08T02:16:38.093Z,12.60
2023-02-08T02:19:11.388Z,13.07
2023-02-08T02:21:46.070Z,12.90
2023-02-08T02:24:35.023Z,12.98
2023-02-08T02:27:11.142Z,12.55
2023-02-08T02:29:56.965Z,13.82
2023-02-08T02:32:34.720Z,13.40
2023-02-08T02:35:36.958Z,13.55
2023-02-08T02:38:23.202Z,13.25
2023-02-08T02:40:50.483Z,12.30
2023-02-08T02:43:42.331Z,13.13
2023-02-08T02:46:25.755Z,13.32
2023-02-08T02:49:15.360Z,13.90
2023-02-08T02:51:50.984Z,13.57
2023-02-08T02:54:34.082Z,13.18
2023-02-08T02:57:06.000Z,13.38
2023-02-08T02:59:35.526Z,13.20
2023-02-08T03:02:04.323Z,13.50
2023-02-08T03:04:34.777Z,13.30
2023-02-08T03:07:11.442Z,14.45
2023-02-08T03:10:07.424Z,13.40
2023-02-08T03:12:34.690Z,13.25
2023-02-08T03:15:11.774Z,14.32
2023-02-08T03:17:57.390Z,14.00
2023-02-08T03:23:53.223Z,14.02
2023-02-08T03:26:43.576Z,13.63
2023-02-08T03:29:23.589Z,15.73
2023-02-08T03:31:58.051Z,15.55
2023-02-08T03:37:44.192Z,14.40
2023-02-08T03:40:43.357Z,16.30
2023-02-08T03:43:38.097Z,15.25
2023-02-08T03:48:41.754Z,15.60
2023-02-08T03:51:10.011Z,15.00
2023-02-08T03:53:40.645Z,15.07
2023-02-08T03:56:15.765Z,14.43
2023-02-08T03:58:49.982Z,15.00
2023-02-08T04:01:23.679Z,15.63
2023-02-08T04:03:54.103Z,15.13
2023-02-08T04:06:22.700Z,16.10
2023-02-08T04:08:50.775Z,16.58
2023-02-08T04:11:17.986Z,16.55
2023-02-08T04:13:45.248Z,15.65
2023-02-08T04:16:13.120Z,17.00
2023-02-08T04:18:40.475Z,15.80
2023-02-08T04:21:08.251Z,15.68
2023-02-08T04:23:35.583Z,15.45
2023-02-08T04:26:05.358Z,16.05
2023-02-08T04:28:32.612Z,16.42
2023-02-08T04:30:59.951Z,15.90
2023-02-08T04:33:27.356Z,17.15
2023-02-08T04:35:54.644Z,16.25
2023-02-08T04:38:21.990Z,16.48
2023-02-08T04:40:49.217Z,15.73
2023-02-08T04:43:16.560Z,15.63
2023-02-08T04:45:43.895Z,16.70
2023-02-08T04:48:12.049Z,16.02
2023-02-08T04:50:39.769Z,16.40
2023-02-08T04:53:07.293Z,15.40
2023-02-08T04:55:35.053Z,16.00
2023-02-08T04:58:02.508Z,16.85
2023-02-08T05:00:30.288Z,17.33
2023-02-08T05:02:58.988Z,17.52
2023-02-08T05:05:27.319Z,16.75
2023-02-08T05:07:54.829Z,16.25
2023-02-08T05:13:04.317Z,15.27
2023-02-08T05:15:31.563Z,16.10
2023-02-08T05:17:58.806Z,15.38
2023-02-08T05:20:26.128Z,16.48
2023-02-08T05:22:53.408Z,15.85
2023-02-08T05:25:20.644Z,14.95
2023-02-08T05:27:48.075Z,15.13
2023-02-08T05:30:15.781Z,14.43
2023-02-08T05:32:43.097Z,16.50
2023-02-08T05:35:10.434Z,15.20
2023-02-08T05:37:37.787Z,15.85
2023-02-08T05:40:05.334Z,15.23
2023-02-08T05:42:32.691Z,15.27
2023-02-08T05:44:59.937Z,14.88
2023-02-08T05:47:27.190Z,14.65
2023-02-08T05:49:54.498Z,14.55
2023-02-08T05:52:21.744Z,13.10
2023-02-08T05:54:49.395Z,13.18
2023-02-08T05:57:16.862Z,12.80
2023-02-08T05:59:44.064Z,11.85
2023-02-08T06:02:11.305Z,13.90
2023-02-08T06:04:39.328Z,12.43
2023-02-08T06:07:06.735Z,11.43
2023-02-08T06:09:34.065Z,13.45
2023-02-08T06:12:01.626Z,12.52
2023-02-08T06:14:28.956Z,13.50
2023-02-08T06:16:56.255Z,13.02
2023-02-08T06:19:23.526Z,11.82
2023-02-08T06:21:50.813Z,12.18
2023-02-08T06:24:18.199Z,12.85
2023-02-08T06:26:45.602Z,13.07
2023-02-08T06:29:12.946Z,14.30
2023-02-08T06:31:40.492Z,12.85
2023-02-08T06:34:08.291Z,12.82
2023-02-08T06:36:35.593Z,12.70
2023-02-08T06:39:03.347Z,12.85
2023-02-08T06:41:30.669Z,15.15
2023-02-08T06:43:59.671Z,12.95
2023-02-08T06:49:08.084Z,14.52
2023-02-08T06:51:35.451Z,14.18
2023-02-08T06:54:02.838Z,12.68
2023-02-08T06:56:30.205Z,13.52
2023-02-08T06:58:57.973Z,13.30
2023-02-08T07:04:06.723Z,11.60
2023-02-08T07:06:34.072Z,13.07
2023-02-08T07:09:02.791Z,14.05
2023-02-08T07:11:30.200Z,13.70
2023-02-08T07:13:57.558Z,14.60
2023-02-08T07:16:24.864Z,14.45
2023-02-08T07:18:52.304Z,13.75
2023-02-08T07:21:19.565Z,12.88
2023-02-08T07:23:46.840Z,12.38
2023-02-08T07:26:17.396Z,13.40
2023-02-08T07:28:44.861Z,13.35
2023-02-08T07:31:17.924Z,12.45
2023-02-08T07:33:45.243Z,11.97
2023-02-08T07:36:12.812Z,12.90
2023-02-08T07:38:40.350Z,13.35
2023-02-08T07:41:10.609Z,13.65
2023-02-08T07:43:39.643Z,14.45
2023-02-08T07:46:15.291Z,13.55
2023-02-08T07:48:43.169Z,13.43
2023-02-08T07:51:11.447Z,12.00
2023-02-08T07:53:39.457Z,13.23
2023-02-08T07:56:07.037Z,14.10
2023-02-08T07:58:34.443Z,14.75
2023-02-08T08:01:07.063Z,13.38
2023-02-08T08:03:43.438Z,12.13
2023-02-08T08:06:11.035Z,14.13
2023-02-08T08:08:39.872Z,13.25
2023-02-08T08:11:07.239Z,12.80
2023-02-08T08:13:34.577Z,13.60
2023-02-08T08:16:01.952Z,12.73
2023-02-08T08:18:29.473Z,12.40
2023-02-08T08:20:56.763Z,13.05
2023-02-08T08:23:24.263Z,14.30
2023-02-08T08:25:51.873Z,12.80
2023-02-08T08:28:19.402Z,12.82
2023-02-08T08:30:46.966Z,23.25
2023-02-08T08:33:14.636Z,21.33
2023-02-08T08:35:44.132Z,20.15
2023-02-08T08:38:11.415Z,17.83
2023-02-08T08:40:38.914Z,17.75
2023-02-08T08:43:06.541Z,17.65
2023-02-08T08:45:33.790Z,16.73
2023-02-08T08:48:01.930Z,17.52
2023-02-08T09:30:34.523Z,15.95
2023-02-08T09:33:01.952Z,15.90
2023-02-08T09:35:29.647Z,15.45
2023-02-08T09:37:58.585Z,15.68
2023-02-08T09:40:31.880Z,15.30
2023-02-08T09:43:11.400Z,14.48
2023-02-08T09:45:59.287Z,13.15
2023-02-08T09:48:35.169Z,13.77
2023-02-08T09:51:09.362Z,14.27
2023-02-08T09:53:40.652Z,12.77
2023-02-08T09:56:14.677Z,12.30
2023-02-08T09:58:46.389Z,12.20
2023-02-08T10:01:27.593Z,11.43
2023-02-08T10:04:03.513Z,13.25
2023-02-08T10:06:31.409Z,12.55
2023-02-08T10:09:02.933Z,13.10
2023-02-08T10:11:48.212Z,12.75
2023-02-08T10:14:23.913Z,12.57
2023-02-08T10:17:12.353Z,11.63
2023-02-08T10:19:50.307Z,12.27
2023-02-08T10:22:27.501Z,12.63
2023-02-08T10:24:58.115Z,12.80
2023-02-08T10:27:35.340Z,12.35
2023-02-08T10:30:19.519Z,11.38
2023-02-08T10:33:38.145Z,12.75
2023-02-08T10:36:17.274Z,12.20
2023-02-08T10:39:37.103Z,11.90
2023-02-08T10:42:10.775Z,12.00
2023-02-08T10:44:55.303Z,11.98
2023-02-08T10:47:35.612Z,12.57
2023-02-08T10:50:07.412Z,11.80
2023-02-08T10:52:34.981Z,11.88
2023-02-08T10:55:03.112Z,12.38
2023-02-08T14:29:27.420Z,7.50
2023-02-08T14:31:55.168Z,7.55
2023-02-08T14:34:25.620Z,8.02
2023-02-08T14:39:29.489Z,8.05
2023-02-08T14:42:04.075Z,7.75
2023-02-08T14:44:57.766Z,6.43
2023-02-08T14:47:48.228Z,6.25
2023-02-08T14:50:23.326Z,6.70
2023-02-08T14:53:07.806Z,6.95
2023-02-08T14:55:48.792Z,6.55
2023-02-08T14:58:28.471Z,6.75
2023-02-08T15:01:00.246Z,7.00
2023-02-08T15:03:30.549Z,6.88
2023-02-08T15:06:24.787Z,6.97
2023-02-08T15:08:53.709Z,6.95
2023-02-08T15:11:27.992Z,7.22
2023-02-08T15:14:00.574Z,7.93
2023-02-08T15:16:41.872Z,7.37
2023-02-08T15:21:37.353Z,6.90
2023-02-08T15:24:30.098Z,6.53
2023-02-08T15:26:58.079Z,6.72
2023-02-08T15:29:42.945Z,6.07
2023-02-08T15:32:20.940Z,6.90
2023-02-08T15:35:02.626Z,6.97
2023-02-08T15:37:34.234Z,7.50
2023-02-08T15:40:03.438Z,7.25
2023-02-08T15:42:34.056Z,7.38
2023-02-08T15:45:02.904Z,6.95
2023-02-08T15:47:36.137Z,6.05
2023-02-08T15:50:06.895Z,6.40
2023-02-08T15:52:36.892Z,6.75
2023-02-08T15:55:08.579Z,7.13
2023-02-08T15:58:15.510Z,7.30
2023-02-08T16:00:45.133Z,7.15
2023-02-08T16:03:23.739Z,6.85
2023-02-08T16:05:54.256Z,6.65
2023-02-08T16:08:28.410Z,7.60
2023-02-08T16:11:03.709Z,7.53
2023-02-08T16:13:33.636Z,6.80
2023-02-08T16:16:40.725Z,7.82
2023-02-08T16:19:29.038Z,7.88
2023-02-08T16:22:25.886Z,8.30
2023-02-08T16:24:53.295Z,7.72
2023-02-08T16:27:30.472Z,7.80
2023-02-08T16:29:59.403Z,7.90
2023-02-08T16:32:31.828Z,8.05
2023-02-08T16:35:01.401Z,8.45
2023-02-08T16:37:35.607Z,8.25
2023-02-08T16:40:43.851Z,9.35
2023-02-08T16:43:31.921Z,9.65
2023-02-08T16:46:21.533Z,8.18
2023-02-08T16:48:56.837Z,8.07
2023-02-08T16:51:34.248Z,9.40
2023-02-08T16:54:07.919Z,9.57
2023-02-08T16:56:36.435Z,9.52
2023-02-08T16:59:04.072Z,9.25
2023-02-08T17:01:32.183Z,8.82
2023-02-08T17:03:59.612Z,9.07
2023-02-08T17:06:31.476Z,8.85
2023-02-08T17:08:59.751Z,9.43
2023-02-08T17:11:27.724Z,10.20
2023-02-08T17:13:55.205Z,9.88
2023-02-08T17:16:24.951Z,10.82
2023-02-08T17:18:52.173Z,10.02
2023-02-08T17:21:19.698Z,11.07
2023-02-08T17:23:47.328Z,10.13
2023-02-08T17:26:27.481Z,10.98
2023-02-08T17:28:56.591Z,11.60
2023-02-08T17:31:25.253Z,10.05
2023-02-08T17:33:52.497Z,11.00
2023-02-08T17:36:19.806Z,10.45
2023-02-08T17:38:47.588Z,11.27
2023-02-08T17:41:19.046Z,11.00
2023-02-08T17:43:50.595Z,10.77
2023-02-08T17:46:21.532Z,11.13
2023-02-08T17:48:48.711Z,10.90
2023-02-08T17:51:19.444Z,10.98
2023-02-08T17:53:47.115Z,12.02
2023-02-08T17:56:20.723Z,11.32
2023-02-08T17:58:51.424Z,11.68
2023-02-08T18:01:24.151Z,11.43
2023-02-08T18:03:52.032Z,11.73
2023-02-08T18:06:20.194Z,11.63
2023-02-08T18:08:47.452Z,12.45
2023-02-08T18:11:19.601Z,13.43
2023-02-08T18:13:49.237Z,13.23
2023-02-08T18:16:19.762Z,12.85
2023-02-08T18:18:47.026Z,12.85
2023-02-08T18:21:19.146Z,12.85
2023-02-08T18:23:47.258Z,12.98
2023-02-08T18:26:17.633Z,12.60
2023-02-08T18:28:45.386Z,13.45
2023-02-08T18:31:15.524Z,14.32
2023-02-08T18:33:43.969Z,13.93
2023-02-08T18:36:11.717Z,13.77
2023-02-08T18:38:40.390Z,14.32
2023-02-08T18:41:09.446Z,13.07
2023-02-08T18:43:38.204Z,14.00
2023-02-08T18:46:09.890Z,14.80
2023-02-08T18:48:38.946Z,12.98
2023-02-08T18:51:08.172Z,13.95
2023-02-08T18:53:38.319Z,14.38
2023-02-08T18:56:07.508Z,13.25
2023-02-08T18:58:35.109Z,13.15
2023-02-08T19:01:11.087Z,14.00
2023-02-08T19:03:39.008Z,14.00
2023-02-08T19:06:09.215Z,14.75
2023-02-08T19:08:37.673Z,14.82
2023-02-08T19:11:15.044Z,14.05
2023-02-08T19:13:42.796Z,14.98
2023-02-08T19:16:10.517Z,16.58
2023-02-08T19:18:37.855Z,16.45
2023-02-08T19:21:07.136Z,16.85
2023-02-08T19:23:34.725Z,17.10
2023-02-08T19:26:19.375Z,17.98
2023-02-08T19:28:46.733Z,16.13
2023-02-08T19:31:18.234Z,16.05
2023-02-08T19:33:47.784Z,15.75
2023-02-08T19:36:19.177Z,15.48
2023-02-08T19:38:48.432Z,16.02
2023-02-08T19:41:22.848Z,15.60
2023-02-08T19:43:50.328Z,14.55
2023-02-08T19:46:20.769Z,15.30
2023-02-08T19:48:49.531Z,16.27
2023-02-08T19:51:17.937Z,15.70
2023-02-08T19:53:45.925Z,15.80
2023-02-08T19:56:16.044Z,15.23
2023-02-08T19:58:43.765Z,16.48
2023-02-08T20:01:14.808Z,16.20
2023-02-08T20:03:42.477Z,15.75
2023-02-08T20:06:31.368Z,17.20
2023-02-08T20:09:00.454Z,16.73
2023-02-08T20:11:30.714Z,17.63
2023-02-08T20:13:59.923Z,17.50
2023-02-08T20:16:31.597Z,18.05
2023-02-08T20:19:00.435Z,17.85
2023-02-08T20:21:28.343Z,17.08
2023-02-08T20:23:55.826Z,18.45
2023-02-08T20:26:26.671Z,18.90
2023-02-08T20:28:57.668Z,19.33
2023-02-08T20:31:31.430Z,18.73
2023-02-08T20:34:00.797Z,18.35
2023-02-08T20:36:32.052Z,19.23
2023-02-08T20:39:00.240Z,18.92
2023-02-08T20:41:33.022Z,19.67
2023-02-08T20:44:00.869Z,20.95
2023-02-08T20:46:34.599Z,20.25
2023-02-08T20:49:05.128Z,16.40
2023-02-08T20:51:32.562Z,18.63
2023-02-08T20:54:00.964Z,18.27
2023-02-08T20:56:31.749Z,19.35
2023-02-08T20:59:04.553Z,18.45
2023-02-08T21:01:33.961Z,19.73
2023-02-08T21:04:01.809Z,20.83
2023-02-08T21:06:31.925Z,20.00
2023-02-08T21:09:02.158Z,21.13
2023-02-08T21:11:31.749Z,22.20
2023-02-08T21:14:00.455Z,22.40
2023-02-08T21:16:28.397Z,22.00
2023-02-08T21:18:57.487Z,20.98
2023-02-08T21:21:25.598Z,19.77
2023-02-08T21:23:52.980Z,20.75
2023-02-08T21:26:21.321Z,20.20
2023-02-08T21:28:52.010Z,21.35
2023-02-08T21:31:22.286Z,20.42
2023-02-08T21:33:50.932Z,21.15
2023-02-08T21:36:21.861Z,22.05
2023-02-08T21:38:49.247Z,22.35
2023-02-08T21:41:29.356Z,19.10
2023-02-08T21:43:59.130Z,20.10
2023-02-08T21:46:28.563Z,20.48
2023-02-08T21:49:17.280Z,20.17
2023-02-08T21:52:05.229Z,20.60
2023-02-08T21:54:53.969Z,21.27
2023-02-08T21:57:25.994Z,21.30
2023-02-08T21:59:57.201Z,21.45
2023-02-08T22:02:27.948Z,21.85
2023-02-08T22:05:17.508Z,22.88
2023-02-08T22:07:48.875Z,22.50
2023-02-08T22:10:19.374Z,24.58
2023-02-08T22:12:47.422Z,22.55
2023-02-08T22:15:17.618Z,22.67
2023-02-08T22:17:45.366Z,21.80
2023-02-08T22:20:14.785Z,22.15
2023-02-08T22:22:42.003Z,21.67
2023-02-08T22:25:09.422Z,21.90
2023-02-08T22:27:39.455Z,22.55
2023-02-08T22:30:08.899Z,21.75
2023-02-08T22:32:39.131Z,21.10
2023-02-08T22:35:06.678Z,22.50
2023-02-08T22:37:34.396Z,24.13
2023-02-08T22:40:02.013Z,22.73
2023-02-08T22:42:29.346Z,24.02
2023-02-08T22:44:56.574Z,24.00
2023-02-08T22:47:23.946Z,25.15
2023-02-08T22:49:51.266Z,24.92
2023-02-08T22:52:18.578Z,24.55
2023-02-08T22:54:46.320Z,24.55
2023-02-08T22:57:13.515Z,23.50
2023-02-08T22:59:40.928Z,25.42
2023-02-08T23:02:08.266Z,23.15
2023-02-08T23:04:37.417Z,23.98
2023-02-08T23:07:05.163Z,23.95
2023-02-08T23:09:32.260Z,22.95
2023-02-08T23:11:59.572Z,23.13
2023-02-08T23:14:26.669Z,24.25
2023-02-08T23:16:53.988Z,23.40
2023-02-08T23:19:21.158Z,23.98
2023-02-08T23:21:48.391Z,24.10
2023-02-08T23:24:15.597Z,23.25
2023-02-08T23:26:43.156Z,23.85
2023-02-08T23:29:10.278Z,24.00
2023-02-08T23:31:40.860Z,22.58
2023-02-08T23:34:08.127Z,23.83
2023-02-08T23:36:35.236Z,23.85
2023-02-08T23:39:03.801Z,24.08
2023-02-08T23:41:31.091Z,21.88
2023-02-08T23:43:58.518Z,22.05
2023-02-08T23:46:28.105Z,23.15
2023-02-08T23:48:55.905Z,20.90
2023-02-08T23:51:24.641Z,20.08
2023-02-08T23:53:54.237Z,19.15
2023-02-08T23:56:31.937Z,19.10
2023-02-08T23:58:59.844Z,17.88
